sensor_id;sensor_type;location;lat;lon;timestamp;temperature;humidity
23748;DHT22;12054;53.662;10.126;2022-07-23T00:00:59;18.70;95.40
23748;DHT22;12054;53.662;10.126;2022-07-23T00:03:25;18.70;95.20
23748;DHT22;12054;53.662;10.126;2022-07-23T00:05:50;18.70;95.10
23748;DHT22;12054;53.662;10.126;2022-07-23T00:08:16;18.60;95.10
23748;DHT22;12054;53.662;10.126;2022-07-23T00:10:42;18.60;95.10
23748;DHT22;12054;53.662;10.126;2022-07-23T00:13:07;18.60;95.10
23748;DHT22;12054;53.662;10.126;2022-07-23T00:15:33;18.60;95.20
23748;DHT22;12054;53.662;10.126;2022-07-23T00:17:58;18.50;95.30
23748;DHT22;12054;53.662;10.126;2022-07-23T00:20:24;18.50;95.30
23748;DHT22;12054;53.662;10.126;2022-07-23T00:22:52;18.50;95.30
23748;DHT22;12054;53.662;10.126;2022-07-23T00:25:18;18.50;95.30
23748;DHT22;12054;53.662;10.126;2022-07-23T00:27:44;18.50;95.30
23748;DHT22;12054;53.662;10.126;2022-07-23T00:30:10;18.50;95.30
23748;DHT22;12054;53.662;10.126;2022-07-23T00:32:47;18.50;95.40
23748;DHT22;12054;53.662;10.126;2022-07-23T00:35:13;18.50;95.40
23748;DHT22;12054;53.662;10.126;2022-07-23T00:37:39;18.50;95.40
23748;DHT22;12054;53.662;10.126;2022-07-23T00:40:05;18.50;95.50
23748;DHT22;12054;53.662;10.126;2022-07-23T00:42:31;18.40;95.50
23748;DHT22;12054;53.662;10.126;2022-07-23T00:44:57;18.40;95.50
23748;DHT22;12054;53.662;10.126;2022-07-23T00:47:22;18.40;95.50
23748;DHT22;12054;53.662;10.126;2022-07-23T00:49:48;18.40;95.50
23748;DHT22;12054;53.662;10.126;2022-07-23T00:52:13;18.40;95.50
23748;DHT22;12054;53.662;10.126;2022-07-23T00:54:39;18.40;95.60
23748;DHT22;12054;53.662;10.126;2022-07-23T00:57:05;18.40;95.60
23748;DHT22;12054;53.662;10.126;2022-07-23T00:59:30;18.40;95.60
23748;DHT22;12054;53.662;10.126;2022-07-23T01:01:57;18.40;95.70
23748;DHT22;12054;53.662;10.126;2022-07-23T01:04:23;18.40;95.70
23748;DHT22;12054;53.662;10.126;2022-07-23T01:06:48;18.30;95.70
23748;DHT22;12054;53.662;10.126;2022-07-23T01:09:14;18.30;95.70
23748;DHT22;12054;53.662;10.126;2022-07-23T01:11:40;18.30;95.70
23748;DHT22;12054;53.662;10.126;2022-07-23T01:14:14;18.30;95.80
23748;DHT22;12054;53.662;10.126;2022-07-23T01:16:41;18.30;95.80
23748;DHT22;12054;53.662;10.126;2022-07-23T01:19:08;18.30;95.80
23748;DHT22;12054;53.662;10.126;2022-07-23T01:21:41;18.30;95.70
23748;DHT22;12054;53.662;10.126;2022-07-23T01:24:08;18.20;95.70
23748;DHT22;12054;53.662;10.126;2022-07-23T01:26:35;18.20;95.70
23748;DHT22;12054;53.662;10.126;2022-07-23T01:29:00;18.20;95.70
23748;DHT22;12054;53.662;10.126;2022-07-23T01:31:26;18.20;95.70
23748;DHT22;12054;53.662;10.126;2022-07-23T01:33:52;18.20;95.70
23748;DHT22;12054;53.662;10.126;2022-07-23T01:36:18;18.10;95.80
23748;DHT22;12054;53.662;10.126;2022-07-23T01:38:43;18.10;95.80
23748;DHT22;12054;53.662;10.126;2022-07-23T01:41:09;18.10;95.80
23748;DHT22;12054;53.662;10.126;2022-07-23T01:43:34;18.10;95.90
23748;DHT22;12054;53.662;10.126;2022-07-23T01:46:00;18.10;95.90
23748;DHT22;12054;53.662;10.126;2022-07-23T01:48:25;18.10;95.90
23748;DHT22;12054;53.662;10.126;2022-07-23T01:50:51;18.10;95.90
23748;DHT22;12054;53.662;10.126;2022-07-23T01:53:17;18.00;95.90
23748;DHT22;12054;53.662;10.126;2022-07-23T01:55:42;18.00;95.90
23748;DHT22;12054;53.662;10.126;2022-07-23T01:58:08;18.00;96.00
23748;DHT22;12054;53.662;10.126;2022-07-23T02:00:34;18.00;96.10
23748;DHT22;12054;53.662;10.126;2022-07-23T02:02:59;18.00;96.10
23748;DHT22;12054;53.662;10.126;2022-07-23T02:05:26;18.00;96.50
23748;DHT22;12054;53.662;10.126;2022-07-23T02:07:54;17.90;96.20
23748;DHT22;12054;53.662;10.126;2022-07-23T02:10:20;17.90;96.20
23748;DHT22;12054;53.662;10.126;2022-07-23T02:12:45;17.90;96.20
23748;DHT22;12054;53.662;10.126;2022-07-23T02:15:11;17.90;96.30
23748;DHT22;12054;53.662;10.126;2022-07-23T02:17:37;17.90;96.70
23748;DHT22;12054;53.662;10.126;2022-07-23T02:20:03;17.90;96.40
23748;DHT22;12054;53.662;10.126;2022-07-23T02:22:28;17.90;96.40
23748;DHT22;12054;53.662;10.126;2022-07-23T02:24:54;17.90;96.50
23748;DHT22;12054;53.662;10.126;2022-07-23T02:27:20;17.90;96.50
23748;DHT22;12054;53.662;10.126;2022-07-23T02:29:45;17.90;96.50
23748;DHT22;12054;53.662;10.126;2022-07-23T02:32:11;17.80;96.50
23748;DHT22;12054;53.662;10.126;2022-07-23T02:34:36;17.80;96.60
23748;DHT22;12054;53.662;10.126;2022-07-23T02:37:02;17.80;96.70
23748;DHT22;12054;53.662;10.126;2022-07-23T02:39:27;17.80;96.70
23748;DHT22;12054;53.662;10.126;2022-07-23T02:41:53;17.90;96.80
23748;DHT22;12054;53.662;10.126;2022-07-23T02:44:18;17.80;96.70
23748;DHT22;12054;53.662;10.126;2022-07-23T02:46:44;17.80;96.80
23748;DHT22;12054;53.662;10.126;2022-07-23T02:49:09;17.80;96.80
23748;DHT22;12054;53.662;10.126;2022-07-23T02:51:35;17.80;96.80
23748;DHT22;12054;53.662;10.126;2022-07-23T02:54:00;17.70;96.80
23748;DHT22;12054;53.662;10.126;2022-07-23T02:56:26;17.70;96.90
23748;DHT22;12054;53.662;10.126;2022-07-23T02:58:51;17.80;96.90
23748;DHT22;12054;53.662;10.126;2022-07-23T03:01:17;17.70;96.90
23748;DHT22;12054;53.662;10.126;2022-07-23T03:03:43;17.70;96.90
23748;DHT22;12054;53.662;10.126;2022-07-23T03:06:08;17.70;97.00
23748;DHT22;12054;53.662;10.126;2022-07-23T03:08:34;17.60;97.00
23748;DHT22;12054;53.662;10.126;2022-07-23T03:10:59;17.60;97.00
23748;DHT22;12054;53.662;10.126;2022-07-23T03:13:25;17.60;97.10
23748;DHT22;12054;53.662;10.126;2022-07-23T03:15:50;17.60;97.20
23748;DHT22;12054;53.662;10.126;2022-07-23T03:18:16;17.60;97.20
23748;DHT22;12054;53.662;10.126;2022-07-23T03:20:42;17.60;97.30
23748;DHT22;12054;53.662;10.126;2022-07-23T03:23:07;17.60;97.30
23748;DHT22;12054;53.662;10.126;2022-07-23T03:25:33;17.60;97.50
23748;DHT22;12054;53.662;10.126;2022-07-23T03:27:58;17.60;97.50
23748;DHT22;12054;53.662;10.126;2022-07-23T03:30:24;17.60;97.70
23748;DHT22;12054;53.662;10.126;2022-07-23T03:32:50;17.60;97.80
23748;DHT22;12054;53.662;10.126;2022-07-23T03:35:15;17.50;97.90
23748;DHT22;12054;53.662;10.126;2022-07-23T03:37:41;17.60;98.00
23748;DHT22;12054;53.662;10.126;2022-07-23T03:40:07;17.50;98.00
23748;DHT22;12054;53.662;10.126;2022-07-23T03:42:32;17.50;98.10
23748;DHT22;12054;53.662;10.126;2022-07-23T03:44:58;17.50;98.10
23748;DHT22;12054;53.662;10.126;2022-07-23T03:47:24;17.50;98.20
23748;DHT22;12054;53.662;10.126;2022-07-23T03:49:49;17.50;98.20
23748;DHT22;12054;53.662;10.126;2022-07-23T03:52:15;17.50;98.20
23748;DHT22;12054;53.662;10.126;2022-07-23T03:54:41;17.50;98.20
23748;DHT22;12054;53.662;10.126;2022-07-23T03:57:06;17.50;98.30
23748;DHT22;12054;53.662;10.126;2022-07-23T03:59:32;17.50;98.30
23748;DHT22;12054;53.662;10.126;2022-07-23T04:01:57;17.50;98.30
23748;DHT22;12054;53.662;10.126;2022-07-23T04:04:23;17.40;98.30
23748;DHT22;12054;53.662;10.126;2022-07-23T04:06:48;17.40;98.30
23748;DHT22;12054;53.662;10.126;2022-07-23T04:09:14;17.40;98.40
23748;DHT22;12054;53.662;10.126;2022-07-23T04:11:40;17.50;98.40
23748;DHT22;12054;53.662;10.126;2022-07-23T04:14:05;17.40;98.40
23748;DHT22;12054;53.662;10.126;2022-07-23T04:16:31;17.50;98.50
23748;DHT22;12054;53.662;10.126;2022-07-23T04:18:57;17.40;98.50
23748;DHT22;12054;53.662;10.126;2022-07-23T04:21:24;17.40;98.50
23748;DHT22;12054;53.662;10.126;2022-07-23T04:23:49;17.40;98.60
23748;DHT22;12054;53.662;10.126;2022-07-23T04:26:15;17.40;98.60
23748;DHT22;12054;53.662;10.126;2022-07-23T04:28:41;17.40;98.60
23748;DHT22;12054;53.662;10.126;2022-07-23T04:31:06;17.40;98.70
23748;DHT22;12054;53.662;10.126;2022-07-23T04:33:32;17.50;98.70
23748;DHT22;12054;53.662;10.126;2022-07-23T04:35:57;17.40;98.60
23748;DHT22;12054;53.662;10.126;2022-07-23T04:38:23;17.40;98.70
23748;DHT22;12054;53.662;10.126;2022-07-23T04:40:49;17.40;98.70
23748;DHT22;12054;53.662;10.126;2022-07-23T04:43:14;17.40;98.70
23748;DHT22;12054;53.662;10.126;2022-07-23T04:45:40;17.40;98.80
23748;DHT22;12054;53.662;10.126;2022-07-23T04:48:05;17.40;98.80
23748;DHT22;12054;53.662;10.126;2022-07-23T04:50:31;17.40;98.80
23748;DHT22;12054;53.662;10.126;2022-07-23T04:52:56;17.40;98.80
23748;DHT22;12054;53.662;10.126;2022-07-23T04:55:22;17.30;98.80
23748;DHT22;12054;53.662;10.126;2022-07-23T04:57:47;17.30;98.80
23748;DHT22;12054;53.662;10.126;2022-07-23T05:00:13;17.30;98.90
23748;DHT22;12054;53.662;10.126;2022-07-23T05:02:39;17.30;98.90
23748;DHT22;12054;53.662;10.126;2022-07-23T05:05:05;17.30;98.90
23748;DHT22;12054;53.662;10.126;2022-07-23T05:07:30;17.30;99.00
23748;DHT22;12054;53.662;10.126;2022-07-23T05:09:56;17.30;99.00
23748;DHT22;12054;53.662;10.126;2022-07-23T05:12:21;17.30;99.00
23748;DHT22;12054;53.662;10.126;2022-07-23T05:14:47;17.30;99.00
23748;DHT22;12054;53.662;10.126;2022-07-23T05:17:12;17.30;99.00
23748;DHT22;12054;53.662;10.126;2022-07-23T05:19:38;17.20;99.00
23748;DHT22;12054;53.662;10.126;2022-07-23T05:22:03;17.20;99.00
23748;DHT22;12054;53.662;10.126;2022-07-23T05:24:29;17.20;99.00
23748;DHT22;12054;53.662;10.126;2022-07-23T05:26:54;17.20;99.00
23748;DHT22;12054;53.662;10.126;2022-07-23T05:29:20;17.20;99.00
23748;DHT22;12054;53.662;10.126;2022-07-23T05:31:45;17.20;99.00
23748;DHT22;12054;53.662;10.126;2022-07-23T05:34:11;17.20;99.00
23748;DHT22;12054;53.662;10.126;2022-07-23T05:36:37;17.20;98.90
23748;DHT22;12054;53.662;10.126;2022-07-23T05:39:03;17.20;99.00
23748;DHT22;12054;53.662;10.126;2022-07-23T05:41:28;17.20;99.00
23748;DHT22;12054;53.662;10.126;2022-07-23T05:43:54;17.20;99.00
23748;DHT22;12054;53.662;10.126;2022-07-23T05:46:20;17.20;99.00
23748;DHT22;12054;53.662;10.126;2022-07-23T05:48:45;17.20;99.00
23748;DHT22;12054;53.662;10.126;2022-07-23T05:51:22;17.20;99.00
23748;DHT22;12054;53.662;10.126;2022-07-23T05:53:48;17.20;98.90
23748;DHT22;12054;53.662;10.126;2022-07-23T05:56:15;17.20;98.90
23748;DHT22;12054;53.662;10.126;2022-07-23T05:58:41;17.20;98.80
23748;DHT22;12054;53.662;10.126;2022-07-23T06:01:07;17.30;98.80
23748;DHT22;12054;53.662;10.126;2022-07-23T06:03:32;17.30;98.90
23748;DHT22;12054;53.662;10.126;2022-07-23T06:05:58;17.30;98.90
23748;DHT22;12054;53.662;10.126;2022-07-23T06:08:23;17.30;98.80
23748;DHT22;12054;53.662;10.126;2022-07-23T06:10:49;17.30;98.80
23748;DHT22;12054;53.662;10.126;2022-07-23T06:13:14;17.30;98.80
23748;DHT22;12054;53.662;10.126;2022-07-23T06:15:40;17.30;98.70
23748;DHT22;12054;53.662;10.126;2022-07-23T06:18:05;17.30;98.60
23748;DHT22;12054;53.662;10.126;2022-07-23T06:20:31;17.30;98.60
23748;DHT22;12054;53.662;10.126;2022-07-23T06:22:56;17.30;98.60
23748;DHT22;12054;53.662;10.126;2022-07-23T06:25:22;17.30;98.60
23748;DHT22;12054;53.662;10.126;2022-07-23T06:27:48;17.30;98.60
23748;DHT22;12054;53.662;10.126;2022-07-23T06:30:14;17.40;98.70
23748;DHT22;12054;53.662;10.126;2022-07-23T06:32:41;17.40;98.70
23748;DHT22;12054;53.662;10.126;2022-07-23T06:35:07;17.40;98.70
23748;DHT22;12054;53.662;10.126;2022-07-23T06:37:33;17.30;98.70
23748;DHT22;12054;53.662;10.126;2022-07-23T06:39:58;17.30;98.80
23748;DHT22;12054;53.662;10.126;2022-07-23T06:42:23;17.40;98.90
23748;DHT22;12054;53.662;10.126;2022-07-23T06:44:49;17.40;98.90
23748;DHT22;12054;53.662;10.126;2022-07-23T06:47:15;17.40;98.90
23748;DHT22;12054;53.662;10.126;2022-07-23T06:49:40;17.40;99.00
23748;DHT22;12054;53.662;10.126;2022-07-23T06:52:07;17.40;99.10
23748;DHT22;12054;53.662;10.126;2022-07-23T06:54:32;17.40;99.10
23748;DHT22;12054;53.662;10.126;2022-07-23T06:56:58;17.50;99.20
23748;DHT22;12054;53.662;10.126;2022-07-23T06:59:23;17.50;99.10
23748;DHT22;12054;53.662;10.126;2022-07-23T07:01:49;17.60;99.20
23748;DHT22;12054;53.662;10.126;2022-07-23T07:04:15;17.60;99.20
23748;DHT22;12054;53.662;10.126;2022-07-23T07:06:40;17.60;99.20
23748;DHT22;12054;53.662;10.126;2022-07-23T07:09:06;17.60;99.20
23748;DHT22;12054;53.662;10.126;2022-07-23T07:11:31;17.70;99.20
23748;DHT22;12054;53.662;10.126;2022-07-23T07:13:57;17.70;99.20
23748;DHT22;12054;53.662;10.126;2022-07-23T07:16:22;17.80;99.10
23748;DHT22;12054;53.662;10.126;2022-07-23T07:18:48;17.80;99.00
23748;DHT22;12054;53.662;10.126;2022-07-23T07:21:14;17.80;98.90
23748;DHT22;12054;53.662;10.126;2022-07-23T07:23:39;17.80;98.90
23748;DHT22;12054;53.662;10.126;2022-07-23T07:26:05;17.80;98.90
23748;DHT22;12054;53.662;10.126;2022-07-23T07:28:30;17.80;98.90
23748;DHT22;12054;53.662;10.126;2022-07-23T07:30:56;17.80;98.90
23748;DHT22;12054;53.662;10.126;2022-07-23T07:33:22;17.80;98.80
23748;DHT22;12054;53.662;10.126;2022-07-23T07:35:47;17.80;98.90
23748;DHT22;12054;53.662;10.126;2022-07-23T07:38:13;17.80;99.00
23748;DHT22;12054;53.662;10.126;2022-07-23T07:40:39;17.80;99.10
23748;DHT22;12054;53.662;10.126;2022-07-23T07:43:04;17.80;99.20
23748;DHT22;12054;53.662;10.126;2022-07-23T07:45:30;17.80;99.40
23748;DHT22;12054;53.662;10.126;2022-07-23T07:47:55;17.80;99.60
23748;DHT22;12054;53.662;10.126;2022-07-23T07:50:22;17.80;99.70
23748;DHT22;12054;53.662;10.126;2022-07-23T07:52:47;17.80;99.80
23748;DHT22;12054;53.662;10.126;2022-07-23T07:55:13;17.80;99.90
23748;DHT22;12054;53.662;10.126;2022-07-23T07:57:39;17.90;99.90
23748;DHT22;12054;53.662;10.126;2022-07-23T08:00:06;17.90;99.90
23748;DHT22;12054;53.662;10.126;2022-07-23T08:02:59;17.90;99.90
23748;DHT22;12054;53.662;10.126;2022-07-23T08:05:27;18.00;99.80
23748;DHT22;12054;53.662;10.126;2022-07-23T08:07:53;18.10;99.70
23748;DHT22;12054;53.662;10.126;2022-07-23T08:10:19;18.10;99.60
23748;DHT22;12054;53.662;10.126;2022-07-23T08:12:47;18.20;99.30
23748;DHT22;12054;53.662;10.126;2022-07-23T08:15:15;18.20;99.20
23748;DHT22;12054;53.662;10.126;2022-07-23T08:17:42;18.20;99.00
23748;DHT22;12054;53.662;10.126;2022-07-23T08:20:09;18.30;99.10
23748;DHT22;12054;53.662;10.126;2022-07-23T08:23:06;18.50;99.00
23748;DHT22;12054;53.662;10.126;2022-07-23T08:25:39;18.60;99.00
23748;DHT22;12054;53.662;10.126;2022-07-23T08:28:08;18.70;98.80
23748;DHT22;12054;53.662;10.126;2022-07-23T08:30:34;18.80;98.70
23748;DHT22;12054;53.662;10.126;2022-07-23T08:33:06;18.80;98.50
23748;DHT22;12054;53.662;10.126;2022-07-23T08:35:33;18.80;98.30
23748;DHT22;12054;53.662;10.126;2022-07-23T08:38:01;18.80;98.30
23748;DHT22;12054;53.662;10.126;2022-07-23T08:40:29;18.80;98.30
23748;DHT22;12054;53.662;10.126;2022-07-23T08:42:55;18.90;98.30
23748;DHT22;12054;53.662;10.126;2022-07-23T08:45:22;18.90;98.30
23748;DHT22;12054;53.662;10.126;2022-07-23T08:47:50;18.90;98.30
23748;DHT22;12054;53.662;10.126;2022-07-23T08:50:16;19.00;98.40
23748;DHT22;12054;53.662;10.126;2022-07-23T08:52:41;19.10;98.10
23748;DHT22;12054;53.662;10.126;2022-07-23T08:55:07;19.10;97.90
23748;DHT22;12054;53.662;10.126;2022-07-23T08:57:33;19.20;97.80
23748;DHT22;12054;53.662;10.126;2022-07-23T08:59:59;19.30;97.80
23748;DHT22;12054;53.662;10.126;2022-07-23T09:02:24;19.40;97.70
23748;DHT22;12054;53.662;10.126;2022-07-23T09:04:50;19.40;97.50
23748;DHT22;12054;53.662;10.126;2022-07-23T09:07:15;19.50;97.30
23748;DHT22;12054;53.662;10.126;2022-07-23T09:09:41;19.50;97.10
23748;DHT22;12054;53.662;10.126;2022-07-23T09:12:09;19.60;96.90
23748;DHT22;12054;53.662;10.126;2022-07-23T09:14:44;19.70;96.60
23748;DHT22;12054;53.662;10.126;2022-07-23T09:17:16;19.70;96.60
23748;DHT22;12054;53.662;10.126;2022-07-23T09:19:44;19.80;96.40
23748;DHT22;12054;53.662;10.126;2022-07-23T09:22:19;19.90;96.40
23748;DHT22;12054;53.662;10.126;2022-07-23T09:25:10;20.00;96.20
23748;DHT22;12054;53.662;10.126;2022-07-23T09:27:57;20.00;96.10
23748;DHT22;12054;53.662;10.126;2022-07-23T09:30:26;20.00;96.40
23748;DHT22;12054;53.662;10.126;2022-07-23T09:33:14;20.10;96.00
23748;DHT22;12054;53.662;10.126;2022-07-23T09:35:55;20.20;96.00
23748;DHT22;12054;53.662;10.126;2022-07-23T09:38:23;20.30;95.80
23748;DHT22;12054;53.662;10.126;2022-07-23T09:41:08;20.30;95.70
23748;DHT22;12054;53.662;10.126;2022-07-23T09:43:34;20.40;95.60
23748;DHT22;12054;53.662;10.126;2022-07-23T09:46:25;20.60;95.50
23748;DHT22;12054;53.662;10.126;2022-07-23T09:48:55;20.80;95.30
23748;DHT22;12054;53.662;10.126;2022-07-23T09:51:24;20.80;94.90
23748;DHT22;12054;53.662;10.126;2022-07-23T09:53:52;20.90;94.60
23748;DHT22;12054;53.662;10.126;2022-07-23T09:56:20;21.00;94.40
23748;DHT22;12054;53.662;10.126;2022-07-23T09:58:46;20.90;94.40
23748;DHT22;12054;53.662;10.126;2022-07-23T10:01:16;20.90;94.40
23748;DHT22;12054;53.662;10.126;2022-07-23T10:03:42;20.90;94.40
23748;DHT22;12054;53.662;10.126;2022-07-23T10:06:09;20.90;94.40
23748;DHT22;12054;53.662;10.126;2022-07-23T10:08:35;20.80;94.40
23748;DHT22;12054;53.662;10.126;2022-07-23T10:11:02;20.80;94.30
23748;DHT22;12054;53.662;10.126;2022-07-23T10:13:28;20.80;94.20
23748;DHT22;12054;53.662;10.126;2022-07-23T10:16:13;20.80;94.10
23748;DHT22;12054;53.662;10.126;2022-07-23T10:18:38;20.70;94.00
23748;DHT22;12054;53.662;10.126;2022-07-23T10:21:07;20.70;93.90
23748;DHT22;12054;53.662;10.126;2022-07-23T10:23:45;20.70;93.60
23748;DHT22;12054;53.662;10.126;2022-07-23T10:26:56;20.60;93.30
23748;DHT22;12054;53.662;10.126;2022-07-23T10:29:34;20.60;93.00
23748;DHT22;12054;53.662;10.126;2022-07-23T10:32:26;20.60;93.00
23748;DHT22;12054;53.662;10.126;2022-07-23T10:35:22;20.60;93.00
23748;DHT22;12054;53.662;10.126;2022-07-23T10:37:51;20.60;93.00
23748;DHT22;12054;53.662;10.126;2022-07-23T10:40:21;20.60;93.00
23748;DHT22;12054;53.662;10.126;2022-07-23T10:42:50;20.70;93.10
23748;DHT22;12054;53.662;10.126;2022-07-23T10:45:34;20.70;93.20
23748;DHT22;12054;53.662;10.126;2022-07-23T10:48:20;20.70;93.10
23748;DHT22;12054;53.662;10.126;2022-07-23T10:51:12;20.70;92.90
23748;DHT22;12054;53.662;10.126;2022-07-23T10:53:58;20.70;92.90
23748;DHT22;12054;53.662;10.126;2022-07-23T10:57:04;20.70;93.00
23748;DHT22;12054;53.662;10.126;2022-07-23T10:59:31;20.70;93.20
23748;DHT22;12054;53.662;10.126;2022-07-23T11:02:22;20.60;93.30
23748;DHT22;12054;53.662;10.126;2022-07-23T11:04:50;20.60;93.40
23748;DHT22;12054;53.662;10.126;2022-07-23T11:07:16;20.60;93.50
23748;DHT22;12054;53.662;10.126;2022-07-23T11:09:43;20.60;93.60
23748;DHT22;12054;53.662;10.126;2022-07-23T11:20:19;20.80;93.70
23748;DHT22;12054;53.662;10.126;2022-07-23T11:25:34;20.90;93.30
23748;DHT22;12054;53.662;10.126;2022-07-23T11:28:15;20.90;93.40
23748;DHT22;12054;53.662;10.126;2022-07-23T11:30:45;20.90;93.30
23748;DHT22;12054;53.662;10.126;2022-07-23T11:35:38;20.90;93.20
23748;DHT22;12054;53.662;10.126;2022-07-23T11:38:22;21.00;93.10
23748;DHT22;12054;53.662;10.126;2022-07-23T11:40:54;21.10;93.00
23748;DHT22;12054;53.662;10.126;2022-07-23T11:43:23;21.10;92.80
23748;DHT22;12054;53.662;10.126;2022-07-23T11:45:51;21.10;92.70
23748;DHT22;12054;53.662;10.126;2022-07-23T11:48:20;21.10;92.70
23748;DHT22;12054;53.662;10.126;2022-07-23T11:50:46;21.10;93.20
23748;DHT22;12054;53.662;10.126;2022-07-23T11:53:12;21.10;92.80
23748;DHT22;12054;53.662;10.126;2022-07-23T11:55:38;21.20;92.80
23748;DHT22;12054;53.662;10.126;2022-07-23T11:58:04;21.10;92.70
23748;DHT22;12054;53.662;10.126;2022-07-23T12:00:31;21.20;92.70
23748;DHT22;12054;53.662;10.126;2022-07-23T12:03:02;21.30;92.70
23748;DHT22;12054;53.662;10.126;2022-07-23T12:05:30;21.40;92.70
23748;DHT22;12054;53.662;10.126;2022-07-23T12:07:57;21.50;92.50
23748;DHT22;12054;53.662;10.126;2022-07-23T12:10:34;21.60;92.30
23748;DHT22;12054;53.662;10.126;2022-07-23T12:13:04;21.60;92.10
23748;DHT22;12054;53.662;10.126;2022-07-23T12:15:35;21.70;91.80
23748;DHT22;12054;53.662;10.126;2022-07-23T12:18:03;21.70;91.50
23748;DHT22;12054;53.662;10.126;2022-07-23T12:20:41;21.70;91.10
23748;DHT22;12054;53.662;10.126;2022-07-23T12:23:09;21.70;91.30
23748;DHT22;12054;53.662;10.126;2022-07-23T12:25:45;21.70;91.30
23748;DHT22;12054;53.662;10.126;2022-07-23T12:28:36;21.80;91.40
23748;DHT22;12054;53.662;10.126;2022-07-23T12:31:03;21.80;91.30
23748;DHT22;12054;53.662;10.126;2022-07-23T12:33:38;21.80;91.10
23748;DHT22;12054;53.662;10.126;2022-07-23T12:36:06;21.80;91.00
23748;DHT22;12054;53.662;10.126;2022-07-23T12:38:40;21.90;90.80
23748;DHT22;12054;53.662;10.126;2022-07-23T12:41:05;21.90;90.60
23748;DHT22;12054;53.662;10.126;2022-07-23T12:43:33;21.90;90.60
23748;DHT22;12054;53.662;10.126;2022-07-23T12:46:12;22.00;90.60
23748;DHT22;12054;53.662;10.126;2022-07-23T12:48:52;22.10;90.60
23748;DHT22;12054;53.662;10.126;2022-07-23T12:51:24;22.20;90.50
23748;DHT22;12054;53.662;10.126;2022-07-23T12:53:53;22.30;90.30
23748;DHT22;12054;53.662;10.126;2022-07-23T12:56:28;22.40;90.20
23748;DHT22;12054;53.662;10.126;2022-07-23T12:58:58;22.40;89.20
23748;DHT22;12054;53.662;10.126;2022-07-23T13:01:29;22.40;88.80
23748;DHT22;12054;53.662;10.126;2022-07-23T13:04:09;22.40;88.20
23748;DHT22;12054;53.662;10.126;2022-07-23T13:06:37;22.40;87.80
23748;DHT22;12054;53.662;10.126;2022-07-23T13:09:05;22.40;87.80
23748;DHT22;12054;53.662;10.126;2022-07-23T13:11:31;22.30;87.30
23748;DHT22;12054;53.662;10.126;2022-07-23T13:13:57;22.30;87.50
23748;DHT22;12054;53.662;10.126;2022-07-23T13:16:23;22.30;87.40
23748;DHT22;12054;53.662;10.126;2022-07-23T13:18:48;22.30;87.30
23748;DHT22;12054;53.662;10.126;2022-07-23T13:21:14;22.30;87.10
23748;DHT22;12054;53.662;10.126;2022-07-23T13:23:39;22.30;87.20
23748;DHT22;12054;53.662;10.126;2022-07-23T13:26:05;22.30;86.50
23748;DHT22;12054;53.662;10.126;2022-07-23T13:28:30;22.30;85.60
23748;DHT22;12054;53.662;10.126;2022-07-23T13:30:56;22.30;85.90
23748;DHT22;12054;53.662;10.126;2022-07-23T13:33:24;22.30;85.90
23748;DHT22;12054;53.662;10.126;2022-07-23T13:35:50;22.30;85.70
23748;DHT22;12054;53.662;10.126;2022-07-23T13:38:17;22.30;85.80
23748;DHT22;12054;53.662;10.126;2022-07-23T13:40:45;22.30;85.80
23748;DHT22;12054;53.662;10.126;2022-07-23T13:43:13;22.40;85.90
23748;DHT22;12054;53.662;10.126;2022-07-23T13:45:40;22.40;85.80
23748;DHT22;12054;53.662;10.126;2022-07-23T13:48:07;22.40;86.00
23748;DHT22;12054;53.662;10.126;2022-07-23T13:50:34;22.40;86.60
23748;DHT22;12054;53.662;10.126;2022-07-23T13:53:07;22.30;87.00
23748;DHT22;12054;53.662;10.126;2022-07-23T13:55:34;22.30;87.50
23748;DHT22;12054;53.662;10.126;2022-07-23T13:58:00;22.30;87.50
23748;DHT22;12054;53.662;10.126;2022-07-23T14:00:26;22.30;87.80
23748;DHT22;12054;53.662;10.126;2022-07-23T14:02:52;22.40;88.10
23748;DHT22;12054;53.662;10.126;2022-07-23T14:05:17;22.40;88.60
23748;DHT22;12054;53.662;10.126;2022-07-23T14:07:43;22.40;88.00
23748;DHT22;12054;53.662;10.126;2022-07-23T14:10:10;22.40;87.80
23748;DHT22;12054;53.662;10.126;2022-07-23T14:12:36;22.40;87.90
23748;DHT22;12054;53.662;10.126;2022-07-23T14:15:04;22.40;87.70
23748;DHT22;12054;53.662;10.126;2022-07-23T14:17:31;22.50;87.70
23748;DHT22;12054;53.662;10.126;2022-07-23T14:19:58;22.50;87.70
23748;DHT22;12054;53.662;10.126;2022-07-23T14:22:23;22.50;87.60
23748;DHT22;12054;53.662;10.126;2022-07-23T14:24:49;22.50;87.40
23748;DHT22;12054;53.662;10.126;2022-07-23T14:27:14;22.50;87.00
23748;DHT22;12054;53.662;10.126;2022-07-23T14:29:40;22.50;86.80
23748;DHT22;12054;53.662;10.126;2022-07-23T14:32:06;22.60;86.70
23748;DHT22;12054;53.662;10.126;2022-07-23T14:34:31;22.60;86.50
23748;DHT22;12054;53.662;10.126;2022-07-23T14:36:58;22.60;86.30
23748;DHT22;12054;53.662;10.126;2022-07-23T14:39:23;22.60;86.30
23748;DHT22;12054;53.662;10.126;2022-07-23T14:41:49;22.60;86.40
23748;DHT22;12054;53.662;10.126;2022-07-23T14:44:14;22.60;86.10
23748;DHT22;12054;53.662;10.126;2022-07-23T14:46:40;22.60;85.90
23748;DHT22;12054;53.662;10.126;2022-07-23T14:49:05;22.60;85.90
23748;DHT22;12054;53.662;10.126;2022-07-23T14:51:31;22.50;86.10
23748;DHT22;12054;53.662;10.126;2022-07-23T14:53:56;22.50;86.50
23748;DHT22;12054;53.662;10.126;2022-07-23T14:56:22;22.50;87.00
23748;DHT22;12054;53.662;10.126;2022-07-23T14:58:48;22.50;87.20
23748;DHT22;12054;53.662;10.126;2022-07-23T15:01:13;22.50;86.50
23748;DHT22;12054;53.662;10.126;2022-07-23T15:03:39;22.50;87.10
23748;DHT22;12054;53.662;10.126;2022-07-23T15:06:05;22.50;86.80
23748;DHT22;12054;53.662;10.126;2022-07-23T15:08:30;22.50;86.40
23748;DHT22;12054;53.662;10.126;2022-07-23T15:10:56;22.50;86.30
23748;DHT22;12054;53.662;10.126;2022-07-23T15:13:22;22.50;86.00
23748;DHT22;12054;53.662;10.126;2022-07-23T15:15:47;22.40;85.90
23748;DHT22;12054;53.662;10.126;2022-07-23T15:18:13;22.40;86.00
23748;DHT22;12054;53.662;10.126;2022-07-23T15:20:39;22.30;86.00
23748;DHT22;12054;53.662;10.126;2022-07-23T15:23:06;22.30;86.00
23748;DHT22;12054;53.662;10.126;2022-07-23T15:25:31;22.30;86.20
23748;DHT22;12054;53.662;10.126;2022-07-23T15:27:58;22.30;86.30
23748;DHT22;12054;53.662;10.126;2022-07-23T15:30:25;22.30;86.00
23748;DHT22;12054;53.662;10.126;2022-07-23T15:32:51;22.30;86.00